createdAt,value
2017-03-18T00:00:10.313Z,39.65
2017-03-18T00:00:52.804Z,40.03
2017-03-18T00:01:33.302Z,40.22
2017-03-18T00:02:13.838Z,39.93
2017-03-18T00:02:54.348Z,40.12
2017-03-18T00:03:34.879Z,39.74
2017-03-18T00:04:15.378Z,39.74
2017-03-18T00:04:55.900Z,40.03
2017-03-18T00:05:36.405Z,39.93
2017-03-18T00:06:16.925Z,40.03
2017-03-18T00:06:57.458Z,39.84
2017-03-18T00:07:37.955Z,40.03
2017-03-18T00:08:18.460Z,39.93
2017-03-18T00:08:58.999Z,40.41
2017-03-18T00:09:39.514Z,40.03
2017-03-18T00:10:20.037Z,40.31
2017-03-18T00:11:00.557Z,40.03
2017-03-18T00:11:41.096Z,40.41
2017-03-18T00:12:21.627Z,40.03
2017-03-18T00:13:02.149Z,40.03
2017-03-18T00:13:42.679Z,40.31
2017-03-18T00:14:23.197Z,40.59
2017-03-18T00:15:03.726Z,40.41
2017-03-18T00:15:44.230Z,40.88
2017-03-18T00:16:24.777Z,40.88
2017-03-18T00:17:05.304Z,40.88
2017-03-18T00:17:45.828Z,40.88
2017-03-18T00:18:26.351Z,40.98
2017-03-18T00:19:06.876Z,40.5
2017-03-18T00:19:47.394Z,40.22
2017-03-18T00:20:27.926Z,40.58
2017-03-18T00:21:08.429Z,41.14
2017-03-18T00:21:48.938Z,40.67
2017-03-18T00:22:29.478Z,40.2
2017-03-18T00:23:09.995Z,41.43
2017-03-18T00:23:50.492Z,40.29
2017-03-18T00:24:31.003Z,40.67
2017-03-18T00:25:11.517Z,40.58
2017-03-18T00:25:52.060Z,40.67
2017-03-18T00:26:32.561Z,40.77
2017-03-18T00:27:13.089Z,40.67
2017-03-18T00:27:53.608Z,40.67
2017-03-18T00:28:34.108Z,40.58
2017-03-18T00:29:14.617Z,40.95
2017-03-18T00:29:55.126Z,41.43
2017-03-18T00:30:35.646Z,40.95
2017-03-18T00:31:16.177Z,41.34
2017-03-18T00:31:56.704Z,41.14
2017-03-18T00:32:37.231Z,41.34
2017-03-18T00:33:17.754Z,41.91
2017-03-18T00:33:58.293Z,42.29
2017-03-18T00:34:38.801Z,41.24
2017-03-18T00:35:19.328Z,41.41
2017-03-18T00:35:59.850Z,41.31
2017-03-18T00:36:40.367Z,41.22
2017-03-18T00:37:20.883Z,41.72
2017-03-18T00:38:01.408Z,41.69
2017-03-18T00:38:41.912Z,41.31
2017-03-18T00:39:22.458Z,41.6
2017-03-18T00:40:02.981Z,41.5
2017-03-18T00:40:43.485Z,41.41
2017-03-18T00:41:24.003Z,41.41
2017-03-18T00:42:04.513Z,41.6
2017-03-18T00:42:45.036Z,41.41
2017-03-18T00:43:25.556Z,41.13
2017-03-18T00:44:06.073Z,41.41
2017-03-18T00:44:46.597Z,41.5
2017-03-18T00:45:27.103Z,42.08
2017-03-18T00:46:07.614Z,41.69
2017-03-18T00:46:48.126Z,42.36
2017-03-18T00:47:28.644Z,41.69
2017-03-18T00:48:09.152Z,42.27
2017-03-18T00:48:49.672Z,42.36
2017-03-18T00:49:30.202Z,42.46
2017-03-18T00:50:10.722Z,42.83
2017-03-18T00:50:51.221Z,42.83
2017-03-18T00:51:31.742Z,42.46
2017-03-18T00:52:12.253Z,41.89
2017-03-18T00:52:52.821Z,41.98
2017-03-18T00:53:33.296Z,42.27
2017-03-18T00:54:13.832Z,42.65
2017-03-18T00:54:54.336Z,42.65
2017-03-18T00:55:34.836Z,41.89
2017-03-18T00:56:15.359Z,41.69
2017-03-18T00:56:56.706Z,41.79
2017-03-18T00:57:37.219Z,41.79
2017-03-18T00:58:17.756Z,41.89
2017-03-18T00:58:58.249Z,42.65
2017-03-18T00:59:38.749Z,42.46
2017-03-18T01:00:19.269Z,42.36
2017-03-18T01:00:59.765Z,42.27
2017-03-18T01:01:40.303Z,42.36
2017-03-18T01:02:20.800Z,42.36
2017-03-18T01:03:01.310Z,42.55
2017-03-18T01:03:41.804Z,42.46
2017-03-18T01:04:22.308Z,42.36
2017-03-18T01:05:02.826Z,42.27
2017-03-18T01:05:43.363Z,42.55
2017-03-18T01:06:23.877Z,43.41
2017-03-18T01:07:04.380Z,43.02
2017-03-18T01:07:44.904Z,43.31
2017-03-18T01:08:25.415Z,43.5
2017-03-18T01:09:05.935Z,43.79
2017-03-18T01:09:46.435Z,43.69
2017-03-18T01:10:26.954Z,43.79
2017-03-18T01:11:07.472Z,43.69
2017-03-18T01:11:48.000Z,44.07
2017-03-18T01:12:28.511Z,44.07
2017-03-18T01:13:09.008Z,44.64
2017-03-18T01:13:49.524Z,44.93
2017-03-18T01:14:30.043Z,45.02
2017-03-18T01:15:10.555Z,45.02
2017-03-18T01:15:51.064Z,45.4
2017-03-18T01:16:31.592Z,45.78
2017-03-18T01:17:12.102Z,45.78
2017-03-18T01:17:52.632Z,45.59
2017-03-18T01:18:33.112Z,45.97
2017-03-18T01:19:13.613Z,45.87
2017-03-18T01:19:54.125Z,45.59
2017-03-18T01:20:34.643Z,45.59
2017-03-18T01:21:15.161Z,45.87
2017-03-18T01:21:55.679Z,46.25
2017-03-18T01:22:36.198Z,46.16
2017-03-18T01:23:16.713Z,46.14
2017-03-18T01:23:57.242Z,46.35
2017-03-18T01:24:37.741Z,46.42
2017-03-18T01:25:18.259Z,46.16
2017-03-18T01:25:58.781Z,45.95
2017-03-18T01:26:39.313Z,45.85
2017-03-18T01:27:19.814Z,46.51
2017-03-18T01:28:00.320Z,46.23
2017-03-18T01:28:40.806Z,46.7
2017-03-18T01:29:21.329Z,46.8
2017-03-18T01:30:01.874Z,46.8
2017-03-18T01:30:42.368Z,46.99
2017-03-18T01:31:22.874Z,47.18
2017-03-18T01:32:03.381Z,47.18
2017-03-18T01:32:43.887Z,47.56
2017-03-18T01:33:24.392Z,47.37
2017-03-18T01:34:04.907Z,47.75
2017-03-18T01:34:45.401Z,47.66
2017-03-18T01:35:25.904Z,47.56
2017-03-18T01:36:06.427Z,47.85
2017-03-18T01:36:46.945Z,48.13
2017-03-18T01:37:27.466Z,47.94
2017-03-18T01:38:07.990Z,47.66
2017-03-18T01:38:48.526Z,47.85
2017-03-18T01:39:29.042Z,47.75
2017-03-18T01:40:09.565Z,47.85
2017-03-18T01:40:50.092Z,48.22
2017-03-18T01:41:30.599Z,48.32
2017-03-18T01:42:11.135Z,48.13
2017-03-18T01:42:51.659Z,48.03
2017-03-18T01:43:32.173Z,48.03
2017-03-18T01:44:12.680Z,48.13
2017-03-18T01:44:53.205Z,48.22
2017-03-18T01:45:33.750Z,48.03
2017-03-18T01:46:14.280Z,48.13
2017-03-18T01:46:54.805Z,48.32
2017-03-18T01:47:35.319Z,47.94
2017-03-18T01:48:15.842Z,48.22
2017-03-18T01:48:56.357Z,48.22
2017-03-18T01:49:36.866Z,48.03
2017-03-18T01:50:17.384Z,48.51
2017-03-18T01:50:57.914Z,48.41
2017-03-18T01:51:38.432Z,48.13
2017-03-18T01:52:18.966Z,48.13
2017-03-18T01:52:59.501Z,48.32
2017-03-18T01:53:40.015Z,48.13
2017-03-18T01:54:20.526Z,47.66
2017-03-18T01:55:01.046Z,47.85
2017-03-18T01:55:41.564Z,47.85
2017-03-18T01:56:22.082Z,47.85
2017-03-18T01:57:02.581Z,48.13
2017-03-18T01:57:43.097Z,48.22
2017-03-18T01:58:23.615Z,48.13
2017-03-18T01:59:04.135Z,48.41
2017-03-18T01:59:44.660Z,48.13
2017-03-18T02:00:25.177Z,48.41
2017-03-18T02:01:05.736Z,48.32
2017-03-18T02:01:46.242Z,48.41
2017-03-18T02:02:26.752Z,48.41
2017-03-18T02:03:07.255Z,48.22
2017-03-18T02:03:47.789Z,48.32
2017-03-18T02:04:28.294Z,48.13
2017-03-18T02:05:08.806Z,48.13
2017-03-18T02:05:49.337Z,48.22
2017-03-18T02:06:29.857Z,48.13
2017-03-18T02:07:10.366Z,48.32
2017-03-18T02:07:50.885Z,48.41
2017-03-18T02:08:31.406Z,48.32
2017-03-18T02:09:11.911Z,48.32
2017-03-18T02:09:52.424Z,48.41
2017-03-18T02:10:32.955Z,48.41
2017-03-18T02:11:13.460Z,48.32
2017-03-18T02:11:53.949Z,48.51
2017-03-18T02:12:34.464Z,48.32
2017-03-18T02:13:14.975Z,48.22
2017-03-18T02:13:55.493Z,48.22
2017-03-18T02:14:36.008Z,48.22
2017-03-18T02:15:16.524Z,48.13
2017-03-18T02:15:57.041Z,48.13
2017-03-18T02:16:37.555Z,48.03
2017-03-18T02:17:18.063Z,47.85
2017-03-18T02:17:58.591Z,48.03
2017-03-18T02:18:39.108Z,48.03
2017-03-18T02:19:19.634Z,48.03
2017-03-18T02:20:00.158Z,48.22
2017-03-18T02:20:40.673Z,48.32
2017-03-18T02:21:21.173Z,48.03
2017-03-18T02:22:01.688Z,48.41
2017-03-18T02:22:42.234Z,48.32
2017-03-18T02:23:22.755Z,48.22
2017-03-18T02:24:03.282Z,47.94
2017-03-18T02:24:43.805Z,47.75
2017-03-18T02:25:24.318Z,47.47
2017-03-18T02:26:04.847Z,47.18
2017-03-18T02:26:45.409Z,46.99
2017-03-18T02:27:25.897Z,46.99
2017-03-18T02:28:06.410Z,46.9
2017-03-18T02:28:46.917Z,46.9
2017-03-18T02:29:27.431Z,46.7
2017-03-18T02:30:07.927Z,46.8
2017-03-18T02:30:48.444Z,46.42
2017-03-18T02:31:28.928Z,46.83
2017-03-18T02:32:09.420Z,47.02
2017-03-18T02:32:49.924Z,46.83
2017-03-18T02:33:30.439Z,46.83
2017-03-18T02:34:10.964Z,46.73
2017-03-18T02:34:51.460Z,46.73
2017-03-18T02:35:31.962Z,46.54
2017-03-18T02:36:12.477Z,46.64
2017-03-18T02:36:52.975Z,46.25
2017-03-18T02:37:33.499Z,46.16
2017-03-18T02:38:14.000Z,46.06
2017-03-18T02:38:54.504Z,45.87
2017-03-18T02:39:35.026Z,45.78
2017-03-18T02:40:15.540Z,45.78
2017-03-18T02:40:56.034Z,45.87
2017-03-18T02:41:36.525Z,45.31
2017-03-18T02:42:17.033Z,45.4
2017-03-18T02:42:57.555Z,45.21
2017-03-18T02:43:38.078Z,44.83
2017-03-18T02:44:18.585Z,44.54
2017-03-18T02:44:59.118Z,44.93
2017-03-18T02:45:39.625Z,45.12
2017-03-18T02:46:20.137Z,44.45
2017-03-18T02:47:00.650Z,44.45
2017-03-18T02:47:41.177Z,45.02
2017-03-18T02:48:21.671Z,44.93
2017-03-18T02:49:02.176Z,44.83
2017-03-18T02:49:42.690Z,44.35
2017-03-18T02:50:23.214Z,44.07
2017-03-18T02:51:03.722Z,43.98
2017-03-18T02:51:44.238Z,43.98
2017-03-18T02:52:24.745Z,44.26
2017-03-18T02:53:05.246Z,44.64
2017-03-18T02:53:45.752Z,44.83
2017-03-18T02:54:26.278Z,45.12
2017-03-18T02:55:06.810Z,44.83
2017-03-18T02:55:47.336Z,44.64
2017-03-18T02:56:27.840Z,44.45
2017-03-18T02:57:08.363Z,44.73
2017-03-18T02:57:49.714Z,44.64
2017-03-18T02:58:30.243Z,44.45
2017-03-18T02:59:10.765Z,44.26
2017-03-18T02:59:51.287Z,44.26
2017-03-18T03:00:31.802Z,43.6
2017-03-18T03:01:12.306Z,43.69
2017-03-18T03:01:52.830Z,43.88
2017-03-18T03:02:33.345Z,43.41
2017-03-18T03:03:13.831Z,42.93
2017-03-18T03:03:54.340Z,43.31
2017-03-18T03:04:34.829Z,42.55
2017-03-18T03:05:15.346Z,42.27
2017-03-18T03:05:55.855Z,41.89
2017-03-18T03:06:36.350Z,42.08
2017-03-18T03:07:16.876Z,41.98
2017-03-18T03:07:57.366Z,41.89
2017-03-18T03:08:37.882Z,41.79
2017-03-18T03:09:18.397Z,41.79
2017-03-18T03:09:58.908Z,42.08
2017-03-18T03:10:39.414Z,41.89
2017-03-18T03:11:19.927Z,41.89
2017-03-18T03:12:00.437Z,41.89
2017-03-18T03:12:40.936Z,42.27
2017-03-18T03:13:21.477Z,42.74
2017-03-18T03:14:01.989Z,42.55
2017-03-18T03:14:42.515Z,42.36
2017-03-18T03:15:23.009Z,42.36
2017-03-18T03:16:03.510Z,42.46
2017-03-18T03:16:44.032Z,41.89
2017-03-18T03:17:24.561Z,41.79
2017-03-18T03:18:05.068Z,41.22
2017-03-18T03:18:45.588Z,41.69
2017-03-18T03:19:26.103Z,40.95
2017-03-18T03:20:06.607Z,40.77
2017-03-18T03:20:47.134Z,40.86
2017-03-18T03:21:27.622Z,40.86
2017-03-18T03:22:08.160Z,40.77
2017-03-18T03:22:48.657Z,40.58
2017-03-18T03:23:29.228Z,41.05
2017-03-18T03:24:09.735Z,41.05
2017-03-18T03:24:50.242Z,40.86
2017-03-18T03:25:30.755Z,41.05
2017-03-18T03:26:11.237Z,40.48
2017-03-18T03:26:51.764Z,40.86
2017-03-18T03:27:32.275Z,40.95
2017-03-18T03:28:12.803Z,41.05
2017-03-18T03:28:53.304Z,40.86
2017-03-18T03:29:33.806Z,40.48
2017-03-18T03:30:14.317Z,40.48
2017-03-18T03:30:54.811Z,40.48
2017-03-18T03:31:35.327Z,40.39
2017-03-18T03:32:15.857Z,40.77
2017-03-18T03:32:56.389Z,40.86
2017-03-18T03:33:36.891Z,40.95
2017-03-18T03:34:17.403Z,40.58
2017-03-18T03:34:57.896Z,40.86
2017-03-18T03:35:38.437Z,40.39
2017-03-18T03:36:18.932Z,40.29
2017-03-18T03:36:59.431Z,40.39
2017-03-18T03:37:39.954Z,40.2
2017-03-18T03:38:20.443Z,40.2
2017-03-18T03:39:00.983Z,40.48
2017-03-18T03:39:41.490Z,39.91
2017-03-18T03:40:21.980Z,39.62
2017-03-18T03:41:02.495Z,39.53
2017-03-18T03:41:43.019Z,39.62
2017-03-18T03:42:23.515Z,40.2
2017-03-18T03:43:04.051Z,40.1
2017-03-18T03:43:44.550Z,39.81
2017-03-18T03:44:25.048Z,39.62
2017-03-18T03:45:05.566Z,39.72
2017-03-18T03:45:46.079Z,39.62
2017-03-18T03:46:26.581Z,39.72
2017-03-18T03:47:07.104Z,39.72
2017-03-18T03:47:47.606Z,39.62
2017-03-18T03:48:28.098Z,39.34
2017-03-18T03:49:08.595Z,39.34
2017-03-18T03:49:49.082Z,39.25
2017-03-18T03:50:29.586Z,39.43
2017-03-18T03:51:10.093Z,39.72
2017-03-18T03:51:50.612Z,39.53
2017-03-18T03:52:31.135Z,39.72
2017-03-18T03:53:11.633Z,39.53
2017-03-18T03:53:52.182Z,39.62
2017-03-18T03:54:32.674Z,39.34
2017-03-18T03:55:13.179Z,39.72
2017-03-18T03:55:53.689Z,39.72
2017-03-18T03:56:34.194Z,39.53
2017-03-18T03:57:14.688Z,39.62
2017-03-18T03:57:55.209Z,40.2
2017-03-18T03:58:35.728Z,40.01
2017-03-18T03:59:16.222Z,39.53
2017-03-18T03:59:56.731Z,39.91
2017-03-18T04:00:37.252Z,39.62
2017-03-18T04:01:17.780Z,39.62
2017-03-18T04:01:58.302Z,40.2
2017-03-18T04:02:38.799Z,39.91
2017-03-18T04:03:19.319Z,39.81
2017-03-18T04:03:59.827Z,40.48
2017-03-18T04:04:40.341Z,40.48
2017-03-18T04:05:20.825Z,40.01
2017-03-18T04:06:01.372Z,39.91
2017-03-18T04:06:41.860Z,40.1
2017-03-18T04:07:22.402Z,39.72
2017-03-18T04:08:02.890Z,39.81
2017-03-18T04:08:43.391Z,39.65
2017-03-18T04:09:23.891Z,39.72
2017-03-18T04:10:04.410Z,40.2
2017-03-18T04:10:44.909Z,39.72
2017-03-18T04:11:25.428Z,39.72
2017-03-18T04:12:05.924Z,39.53
2017-03-18T04:12:46.444Z,39.62
2017-03-18T04:13:26.961Z,38.98
2017-03-18T04:14:07.466Z,38.89
2017-03-18T04:14:47.972Z,38.79
2017-03-18T04:15:28.488Z,39.26
2017-03-18T04:16:09.011Z,39.55
2017-03-18T04:16:49.519Z,40.03
2017-03-18T04:17:30.061Z,39.93
2017-03-18T04:18:10.553Z,40.41
2017-03-18T04:18:51.090Z,40.41
2017-03-18T04:19:31.588Z,39.84
2017-03-18T04:20:12.122Z,39.55
2017-03-18T04:20:52.629Z,39.55
2017-03-18T04:21:33.142Z,39.26
2017-03-18T04:22:13.644Z,39.07
2017-03-18T04:22:54.177Z,38.98
2017-03-18T04:23:34.671Z,38.79
2017-03-18T04:24:15.198Z,38.89
2017-03-18T04:24:55.700Z,38.89
2017-03-18T04:25:36.254Z,38.98
2017-03-18T04:26:16.747Z,39.26
2017-03-18T04:26:57.253Z,39.26
2017-03-18T04:27:37.756Z,39.45
2017-03-18T04:28:18.275Z,39.36
2017-03-18T04:28:58.814Z,39.17
2017-03-18T04:29:39.313Z,38.51
2017-03-18T04:30:19.843Z,38.98
2017-03-18T04:31:00.394Z,38.6
2017-03-18T04:31:41.491Z,38.89
2017-03-18T04:32:22.003Z,39.17
2017-03-18T04:33:02.722Z,39.26
2017-03-18T04:33:43.266Z,39.65
2017-03-18T04:34:23.763Z,38.89
2017-03-18T04:35:04.317Z,38.98
2017-03-18T04:35:44.812Z,38.98
2017-03-18T04:36:25.598Z,38.98
2017-03-18T04:37:06.415Z,38.89
2017-03-18T04:37:46.929Z,38.51
2017-03-18T04:38:27.451Z,38.31
2017-03-18T04:39:07.978Z,38.12
2017-03-18T04:39:48.469Z,38.03
2017-03-18T04:40:28.999Z,38.41
2017-03-18T04:41:09.614Z,38.22
2017-03-18T04:41:50.126Z,37.74
2017-03-18T04:42:30.646Z,37.74
2017-03-18T04:43:11.232Z,37.74
2017-03-18T04:43:51.680Z,37.46
2017-03-18T04:44:32.214Z,37.46
2017-03-18T04:45:12.793Z,37.37
2017-03-18T04:45:53.410Z,37.29
2017-03-18T04:46:33.969Z,37.86
2017-03-18T04:47:14.509Z,37.29
2017-03-18T04:47:55.032Z,37.19
2017-03-18T04:48:35.547Z,37.67
2017-03-18T04:49:16.049Z,37.95
2017-03-18T04:49:56.547Z,37.29
2017-03-18T04:50:37.145Z,37.57
2017-03-18T04:51:17.806Z,37.48
2017-03-18T04:51:58.249Z,37.38
2017-03-18T04:52:38.838Z,37.76
2017-03-18T04:53:19.410Z,38.34
2017-03-18T04:53:59.950Z,38.9
2017-03-18T04:54:40.530Z,38.62
2017-03-18T04:55:21.124Z,38.62
2017-03-18T04:56:01.673Z,38.9
2017-03-18T04:56:42.256Z,38.71
2017-03-18T04:57:22.883Z,38.43
2017-03-18T04:58:03.381Z,38.24
2017-03-18T04:58:43.917Z,38.62
2017-03-18T04:59:24.418Z,38.81
2017-03-18T05:00:04.908Z,39.19
2017-03-18T05:00:45.416Z,38.71
2017-03-18T05:01:25.922Z,39.09
2017-03-18T05:02:06.433Z,39.09
2017-03-18T05:02:46.957Z,39.09
2017-03-18T05:03:27.464Z,38.34
2017-03-18T05:04:07.996Z,38.34
2017-03-18T05:04:48.509Z,38.81
2017-03-18T05:05:29.086Z,38.71
2017-03-18T05:06:09.614Z,38.24
2017-03-18T05:06:50.129Z,37.86
2017-03-18T05:07:30.641Z,38.14
2017-03-18T05:08:11.169Z,38.43
2017-03-18T05:08:51.672Z,38.53
2017-03-18T05:09:32.179Z,38.62
2017-03-18T05:10:12.697Z,38.71
2017-03-18T05:10:53.209Z,38.05
2017-03-18T05:11:33.720Z,38.34
2017-03-18T05:12:14.234Z,38.71
2017-03-18T05:12:54.817Z,39
2017-03-18T05:13:35.289Z,39
2017-03-18T05:14:15.804Z,39.28
2017-03-18T05:14:56.345Z,38.9
2017-03-18T05:15:36.890Z,39
2017-03-18T05:16:17.380Z,38.24
2017-03-18T05:16:57.889Z,38.34
2017-03-18T05:17:38.408Z,38.62
2017-03-18T05:18:18.896Z,39.09
2017-03-18T05:18:59.433Z,38.81
2017-03-18T05:19:39.949Z,38.9
2017-03-18T05:20:20.475Z,38.34
2017-03-18T05:21:01.012Z,37.86
2017-03-18T05:21:41.534Z,37.95
2017-03-18T05:22:22.041Z,38.43
2017-03-18T05:23:02.543Z,38.24
2017-03-18T05:23:43.081Z,38.34
2017-03-18T05:24:23.634Z,38.53
2017-03-18T05:25:04.146Z,38.24
2017-03-18T05:25:44.790Z,38.43
2017-03-18T05:26:25.320Z,38.43
2017-03-18T05:27:05.939Z,37.1
2017-03-18T05:27:46.441Z,36.62
2017-03-18T05:28:26.947Z,37.1
2017-03-18T05:29:07.463Z,37.48
2017-03-18T05:29:47.956Z,37.95
2017-03-18T05:30:28.460Z,38.43
2017-03-18T05:31:08.980Z,38.34
2017-03-18T05:31:49.481Z,37.67
2017-03-18T05:32:30.002Z,37.95
2017-03-18T05:33:10.509Z,38.43
2017-03-18T05:33:51.004Z,37.67
2017-03-18T05:34:31.520Z,37.19
2017-03-18T05:35:12.064Z,37.1
2017-03-18T05:35:52.564Z,37.12
2017-03-18T05:36:33.075Z,37.1
2017-03-18T05:37:13.587Z,37.57
2017-03-18T05:37:54.097Z,37.29
2017-03-18T05:38:34.623Z,37.69
2017-03-18T05:39:15.119Z,37.78
2017-03-18T05:39:55.633Z,37.97
2017-03-18T05:40:36.153Z,37.78
2017-03-18T05:41:16.653Z,38.35
2017-03-18T05:41:57.166Z,37.88
2017-03-18T05:42:37.653Z,37.12
2017-03-18T05:43:18.185Z,36.55
2017-03-18T05:43:58.702Z,36.26
2017-03-18T05:44:39.212Z,36.16
2017-03-18T05:45:19.716Z,36.45
2017-03-18T05:46:00.237Z,36.74
2017-03-18T05:46:40.771Z,36.26
2017-03-18T05:47:21.278Z,35.78
2017-03-18T05:48:01.773Z,36.74
2017-03-18T05:48:42.298Z,37.02
2017-03-18T05:49:22.816Z,37.12
2017-03-18T05:50:03.323Z,36.16
2017-03-18T05:50:43.828Z,35.88
2017-03-18T05:51:24.344Z,36.45
2017-03-18T05:52:04.861Z,37.3
2017-03-18T05:52:45.384Z,37.4
2017-03-18T05:53:25.889Z,37.49
2017-03-18T05:54:06.405Z,37.97
2017-03-18T05:54:46.924Z,36.83
2017-03-18T05:55:27.442Z,36.45
2017-03-18T05:56:07.974Z,37.12
2017-03-18T05:56:48.454Z,36.45
2017-03-18T05:57:28.988Z,36.45
2017-03-18T05:58:09.478Z,36.74
2017-03-18T05:58:50.001Z,37.3
2017-03-18T05:59:30.568Z,36.83
2017-03-18T06:00:11.061Z,37.4
2017-03-18T06:00:51.575Z,37.97
2017-03-18T06:01:32.090Z,37.88
2017-03-18T06:02:12.578Z,38.35
2017-03-18T06:02:53.098Z,37.88
2017-03-18T06:03:33.593Z,37.4
2017-03-18T06:04:14.122Z,37.49
2017-03-18T06:04:54.605Z,36.93
2017-03-18T06:05:35.132Z,36.35
2017-03-18T06:06:15.638Z,36.74
2017-03-18T06:06:56.150Z,36.64
2017-03-18T06:07:36.663Z,37.3
2017-03-18T06:08:17.193Z,37.3
2017-03-18T06:08:57.689Z,37.59
2017-03-18T06:09:38.187Z,37.78
2017-03-18T06:10:18.701Z,37.3
2017-03-18T06:10:59.212Z,37.49
2017-03-18T06:11:39.739Z,37.59
2017-03-18T06:12:20.254Z,36.64
2017-03-18T06:13:00.782Z,36.74
2017-03-18T06:13:41.296Z,36.93
2017-03-18T06:14:21.809Z,37.02
2017-03-18T06:15:02.307Z,36.93
2017-03-18T06:15:42.820Z,37.3
2017-03-18T06:16:23.354Z,36.74
2017-03-18T06:17:03.856Z,37.49
2017-03-18T06:17:44.367Z,37.49
2017-03-18T06:18:24.873Z,37.49
2017-03-18T06:19:05.384Z,37.49
2017-03-18T06:19:45.892Z,36.93
2017-03-18T06:20:26.397Z,37.3
2017-03-18T06:21:06.918Z,37.42
2017-03-18T06:21:47.437Z,37.12
2017-03-18T06:22:27.953Z,36.74
2017-03-18T06:23:08.475Z,36.94
2017-03-18T06:23:49.015Z,36.93
2017-03-18T06:24:29.549Z,37.3
2017-03-18T06:25:10.072Z,37.49
2017-03-18T06:25:50.586Z,37.3
2017-03-18T06:26:31.116Z,37.4
2017-03-18T06:27:11.644Z,37.88
2017-03-18T06:27:52.142Z,37.78
2017-03-18T06:28:32.673Z,37.69
2017-03-18T06:29:13.214Z,37.99
2017-03-18T06:29:53.726Z,37.88
2017-03-18T06:30:34.245Z,37.99
2017-03-18T06:31:14.749Z,37.78
2017-03-18T06:31:55.259Z,36.74
2017-03-18T06:32:35.796Z,36.35
2017-03-18T06:33:16.340Z,36.07
2017-03-18T06:33:56.844Z,35.97
2017-03-18T06:34:37.387Z,36.35
2017-03-18T06:35:17.889Z,36.64
2017-03-18T06:35:58.419Z,36.83
2017-03-18T06:36:38.935Z,36.16
2017-03-18T06:37:19.453Z,36.07
2017-03-18T06:37:59.984Z,36.35
2017-03-18T06:38:40.493Z,36.26
2017-03-18T06:39:21.083Z,36.16
2017-03-18T06:40:01.605Z,36.16
2017-03-18T06:40:42.146Z,36.35
2017-03-18T06:41:22.655Z,36.45
2017-03-18T06:42:03.166Z,36.64
2017-03-18T06:42:43.733Z,36.74
2017-03-18T06:43:24.285Z,37.02
2017-03-18T06:44:04.806Z,36.64
2017-03-18T06:44:45.315Z,36.83
2017-03-18T06:45:25.827Z,36.93
2017-03-18T06:46:06.332Z,37.12
2017-03-18T06:46:46.857Z,36.93
2017-03-18T06:47:27.678Z,37.02
2017-03-18T06:48:08.373Z,37.21
2017-03-18T06:48:48.868Z,36.93
2017-03-18T06:49:29.361Z,37.02
2017-03-18T06:50:09.884Z,37.12
2017-03-18T06:50:50.402Z,37.49
2017-03-18T06:51:31.503Z,37.59
2017-03-18T06:52:11.457Z,37.3
2017-03-18T06:52:51.978Z,37.3
2017-03-18T06:53:32.491Z,37.3
2017-03-18T06:54:13.009Z,37.02
2017-03-18T06:54:53.526Z,36.55
2017-03-18T06:55:34.035Z,36.45
2017-03-18T06:56:14.573Z,36.55
2017-03-18T06:56:55.082Z,36.35
2017-03-18T06:57:35.605Z,36.55
2017-03-18T06:58:16.127Z,37.02
2017-03-18T06:58:56.631Z,36.93
2017-03-18T06:59:37.150Z,36.74
2017-03-18T07:00:17.663Z,36.55
2017-03-18T07:00:58.175Z,36.74
2017-03-18T07:01:38.682Z,36.55
2017-03-18T07:02:19.210Z,36.55
2017-03-18T07:02:59.729Z,36.83
2017-03-18T07:03:40.251Z,36.55
2017-03-18T07:04:20.781Z,36.55
2017-03-18T07:05:01.276Z,36.45
2017-03-18T07:05:41.790Z,36.64
2017-03-18T07:06:22.288Z,36.93
2017-03-18T07:07:02.794Z,37.02
2017-03-18T07:07:43.298Z,36.55
2017-03-18T07:08:23.818Z,35.88
2017-03-18T07:09:04.312Z,35.78
2017-03-18T07:09:44.843Z,36.45
2017-03-18T07:10:25.361Z,35.97
2017-03-18T07:11:05.886Z,36.45
2017-03-18T07:11:46.387Z,35.69
2017-03-18T07:12:26.896Z,35.97
2017-03-18T07:13:07.385Z,36.07
2017-03-18T07:13:47.890Z,36.55
2017-03-18T07:14:28.385Z,36.35
2017-03-18T07:15:08.925Z,36.64
2017-03-18T07:15:49.442Z,36.83
2017-03-18T07:16:29.964Z,36.93
2017-03-18T07:17:10.462Z,36.93
2017-03-18T07:17:50.982Z,36.93
2017-03-18T07:18:31.494Z,37.12
2017-03-18T07:19:12.024Z,37.02
2017-03-18T07:19:52.536Z,37.49
2017-03-18T07:20:33.051Z,37.12
2017-03-18T07:21:13.595Z,37.21
2017-03-18T07:21:54.086Z,37.59
2017-03-18T07:22:34.613Z,36.93
2017-03-18T07:23:15.136Z,37.02
2017-03-18T07:23:55.657Z,36.93
2017-03-18T07:24:36.185Z,37.59
2017-03-18T07:25:16.700Z,37.49
2017-03-18T07:25:57.206Z,37.21
2017-03-18T07:26:37.730Z,37.3
2017-03-18T07:27:18.243Z,37.21
2017-03-18T07:27:58.764Z,37.3
2017-03-18T07:28:39.281Z,37.4
2017-03-18T07:29:19.828Z,37.3
2017-03-18T07:30:00.338Z,37.3
2017-03-18T07:30:40.843Z,37.78
2017-03-18T07:31:21.344Z,37.97
2017-03-18T07:32:01.865Z,38.07
2017-03-18T07:32:42.386Z,37.69
2017-03-18T07:33:22.845Z,37.78
2017-03-18T07:34:03.361Z,37.97
2017-03-18T07:34:43.867Z,37.78
2017-03-18T07:35:24.423Z,37.97
2017-03-18T07:36:04.944Z,38.07
2017-03-18T07:36:45.437Z,38.17
2017-03-18T07:37:25.947Z,38.64
2017-03-18T07:38:06.476Z,38.45
2017-03-18T07:38:46.983Z,38.17
2017-03-18T07:39:27.516Z,37.49
2017-03-18T07:40:08.022Z,37.88
2017-03-18T07:40:48.559Z,37.88
2017-03-18T07:41:29.062Z,37.71
2017-03-18T07:42:09.593Z,37.59
2017-03-18T07:42:50.100Z,37.42
2017-03-18T07:43:30.659Z,37.52
2017-03-18T07:44:11.186Z,37.99
2017-03-18T07:44:51.710Z,38.07
2017-03-18T07:45:32.217Z,37.49
2017-03-18T07:46:12.729Z,37.13
2017-03-18T07:46:53.270Z,37.13
2017-03-18T07:47:33.766Z,37.42
2017-03-18T07:48:14.292Z,37.52
2017-03-18T07:48:54.794Z,37.9
2017-03-18T07:49:35.285Z,37.71
2017-03-18T07:50:15.804Z,37.8
2017-03-18T07:50:56.321Z,37.99
2017-03-18T07:51:36.847Z,37.99
2017-03-18T07:52:17.361Z,37.8
2017-03-18T07:52:57.877Z,37.61
2017-03-18T07:53:38.405Z,37.99
2017-03-18T07:54:18.878Z,37.9
2017-03-18T07:54:59.414Z,37.8
2017-03-18T07:55:39.935Z,38.09
2017-03-18T07:56:20.439Z,38.47
2017-03-18T07:57:00.961Z,38.09
2017-03-18T07:57:41.457Z,38.28
2017-03-18T07:58:21.975Z,38.37
2017-03-18T07:59:02.510Z,37.8
2017-03-18T07:59:43.038Z,37.42
2017-03-18T08:00:23.576Z,37.32
2017-03-18T08:01:04.092Z,37.32
2017-03-18T08:01:44.605Z,37.71
2017-03-18T08:02:25.111Z,37.71
2017-03-18T08:03:05.637Z,37.71
2017-03-18T08:03:46.181Z,37.99
2017-03-18T08:04:26.693Z,37.61
2017-03-18T08:05:07.221Z,37.9
2017-03-18T08:05:47.754Z,37.9
2017-03-18T08:06:28.251Z,37.99
2017-03-18T08:07:08.824Z,37.52
2017-03-18T08:07:49.310Z,37.61
2017-03-18T08:08:29.815Z,37.04
2017-03-18T08:09:10.325Z,36.94
2017-03-18T08:09:50.838Z,37.13
2017-03-18T08:10:31.375Z,37.23
2017-03-18T08:11:11.880Z,36.57
2017-03-18T08:11:52.377Z,36.66
2017-03-18T08:12:32.956Z,36.57
2017-03-18T08:13:13.415Z,36.28
2017-03-18T08:13:53.929Z,35.8
2017-03-18T08:14:34.438Z,35.52
2017-03-18T08:15:14.979Z,35.61
2017-03-18T08:15:55.631Z,35.8
2017-03-18T08:16:37.156Z,35.89
2017-03-18T08:17:17.635Z,36.37
2017-03-18T08:17:58.144Z,36.28
2017-03-18T08:18:38.653Z,36.18
2017-03-18T08:19:19.161Z,36.08
2017-03-18T08:19:59.678Z,36.57
2017-03-18T08:20:40.213Z,35.8
2017-03-18T08:21:20.937Z,35.33
2017-03-18T08:22:01.399Z,34.66
2017-03-18T08:22:41.922Z,34.75
2017-03-18T08:23:22.444Z,34.56
2017-03-18T08:24:02.939Z,34.38
2017-03-18T08:24:43.457Z,34.18
2017-03-18T08:25:24.166Z,34.67
2017-03-18T08:26:04.620Z,34.56
2017-03-18T08:26:45.169Z,34.38
2017-03-18T08:27:25.708Z,34.67
2017-03-18T08:28:06.269Z,35.06
2017-03-18T08:28:46.775Z,35.44
2017-03-18T08:29:27.302Z,35.15
2017-03-18T08:30:07.823Z,34.58
2017-03-18T08:30:48.382Z,34.11
2017-03-18T08:31:28.873Z,33.53
2017-03-18T08:32:09.418Z,34.3
2017-03-18T08:32:49.898Z,34.58
2017-03-18T08:33:30.424Z,34.77
2017-03-18T08:34:10.937Z,34.77
2017-03-18T08:34:51.463Z,34.87
2017-03-18T08:35:31.950Z,35.35
2017-03-18T08:36:12.453Z,35.25
2017-03-18T08:36:52.949Z,35.44
2017-03-18T08:37:33.452Z,34.77
2017-03-18T08:38:14.459Z,34.2
2017-03-18T08:38:54.967Z,33.72
2017-03-18T08:39:35.491Z,32.87
2017-03-18T08:40:16.019Z,33.44
2017-03-18T08:40:56.517Z,33.15
2017-03-18T08:41:37.039Z,33.53
2017-03-18T08:42:17.565Z,33.06
2017-03-18T08:42:58.073Z,32.29
2017-03-18T08:43:38.616Z,32.48